sensor_id;sensor_type;location;lat;lon;timestamp;temperature;humidity
18807;DHT22;9531;52.030;4.380;2022-09-23T00:01:03;12.00;99.90
18807;DHT22;9531;52.030;4.380;2022-09-23T00:03:37;15.30;99.90
18807;DHT22;9531;52.030;4.380;2022-09-23T00:06:07;16.70;99.90
18807;DHT22;9531;52.030;4.380;2022-09-23T00:08:38;7.70;99.90
18807;DHT22;9531;52.030;4.380;2022-09-23T00:11:06;11.90;99.90
18807;DHT22;9531;52.030;4.380;2022-09-23T00:13:35;8.80;99.90
18807;DHT22;9531;52.030;4.380;2022-09-23T00:16:03;11.50;99.90
18807;DHT22;9531;52.030;4.380;2022-09-23T00:18:30;6.40;99.90
18807;DHT22;9531;52.030;4.380;2022-09-23T00:21:01;7.20;99.90
18807;DHT22;9531;52.030;4.380;2022-09-23T00:28:27;6.30;99.90
18807;DHT22;9531;52.030;4.380;2022-09-23T00:30:54;11.50;99.90
18807;DHT22;9531;52.030;4.380;2022-09-23T00:33:22;6.80;99.90
18807;DHT22;9531;52.030;4.380;2022-09-23T00:35:50;11.70;99.90
18807;DHT22;9531;52.030;4.380;2022-09-23T00:38:20;8.90;99.90
18807;DHT22;9531;52.030;4.380;2022-09-23T00:43:37;7.40;99.90
18807;DHT22;9531;52.030;4.380;2022-09-23T00:46:07;11.60;99.90
18807;DHT22;9531;52.030;4.380;2022-09-23T00:48:38;5.70;99.90
18807;DHT22;9531;52.030;4.380;2022-09-23T00:51:08;11.50;99.90
18807;DHT22;9531;52.030;4.380;2022-09-23T00:53:40;11.50;99.90
18807;DHT22;9531;52.030;4.380;2022-09-23T00:56:10;11.50;99.90
18807;DHT22;9531;52.030;4.380;2022-09-23T00:58:39;11.50;99.90
18807;DHT22;9531;52.030;4.380;2022-09-23T01:06:01;13.80;99.90
18807;DHT22;9531;52.030;4.380;2022-09-23T01:08:29;11.40;99.90
18807;DHT22;9531;52.030;4.380;2022-09-23T01:11:04;12.20;99.90
18807;DHT22;9531;52.030;4.380;2022-09-23T01:13:40;11.40;99.90
18807;DHT22;9531;52.030;4.380;2022-09-23T01:16:14;11.30;99.90
18807;DHT22;9531;52.030;4.380;2022-09-23T01:18:51;9.00;99.90
18807;DHT22;9531;52.030;4.380;2022-09-23T01:21:30;11.30;99.90
18807;DHT22;9531;52.030;4.380;2022-09-23T01:24:18;11.40;99.90
18807;DHT22;9531;52.030;4.380;2022-09-23T01:26:59;14.50;99.90
18807;DHT22;9531;52.030;4.380;2022-09-23T01:32:35;8.30;99.90
18807;DHT22;9531;52.030;4.380;2022-09-23T01:35:06;9.30;99.90
18807;DHT22;9531;52.030;4.380;2022-09-23T01:37:44;11.20;99.90
18807;DHT22;9531;52.030;4.380;2022-09-23T01:40:17;14.70;99.90
18807;DHT22;9531;52.030;4.380;2022-09-23T01:42:50;15.60;99.90
18807;DHT22;9531;52.030;4.380;2022-09-23T01:45:24;11.20;99.90
18807;DHT22;9531;52.030;4.380;2022-09-23T01:48:01;11.20;99.90
18807;DHT22;9531;52.030;4.380;2022-09-23T01:50:37;15.60;99.90
18807;DHT22;9531;52.030;4.380;2022-09-23T01:53:28;11.10;99.90
18807;DHT22;9531;52.030;4.380;2022-09-23T01:56:02;14.50;99.90
18807;DHT22;9531;52.030;4.380;2022-09-23T01:58:34;16.20;99.90
18807;DHT22;9531;52.030;4.380;2022-09-23T02:01:04;15.30;99.90
18807;DHT22;9531;52.030;4.380;2022-09-23T02:03:40;13.40;99.90
18807;DHT22;9531;52.030;4.380;2022-09-23T02:06:11;11.00;99.90
18807;DHT22;9531;52.030;4.380;2022-09-23T02:08:44;14.60;99.90
18807;DHT22;9531;52.030;4.380;2022-09-23T02:11:14;15.70;99.90
18807;DHT22;9531;52.030;4.380;2022-09-23T02:13:47;10.90;99.90
18807;DHT22;9531;52.030;4.380;2022-09-23T02:16:23;16.80;99.90
18807;DHT22;9531;52.030;4.380;2022-09-23T02:18:56;11.00;99.90
18807;DHT22;9531;52.030;4.380;2022-09-23T02:21:29;12.50;99.90
18807;DHT22;9531;52.030;4.380;2022-09-23T02:24:04;15.10;99.90
18807;DHT22;9531;52.030;4.380;2022-09-23T02:26:35;10.90;99.90
18807;DHT22;9531;52.030;4.380;2022-09-23T02:29:09;10.90;99.90
18807;DHT22;9531;52.030;4.380;2022-09-23T02:31:46;10.90;99.90
18807;DHT22;9531;52.030;4.380;2022-09-23T02:34:33;6.50;99.90
18807;DHT22;9531;52.030;4.380;2022-09-23T02:37:10;5.80;99.90
18807;DHT22;9531;52.030;4.380;2022-09-23T02:39:48;6.80;99.90
18807;DHT22;9531;52.030;4.380;2022-09-23T02:42:20;10.80;99.90
18807;DHT22;9531;52.030;4.380;2022-09-23T02:44:49;8.00;99.90
18807;DHT22;9531;52.030;4.380;2022-09-23T02:47:18;7.50;99.90
18807;DHT22;9531;52.030;4.380;2022-09-23T02:49:50;10.00;99.90
18807;DHT22;9531;52.030;4.380;2022-09-23T02:52:21;10.90;99.90
18807;DHT22;9531;52.030;4.380;2022-09-23T02:54:53;7.00;99.90
18807;DHT22;9531;52.030;4.380;2022-09-23T02:57:22;7.20;99.90
18807;DHT22;9531;52.030;4.380;2022-09-23T02:59:50;7.10;99.90
18807;DHT22;9531;52.030;4.380;2022-09-23T03:02:40;10.90;99.90
18807;DHT22;9531;52.030;4.380;2022-09-23T03:05:20;10.90;99.90
18807;DHT22;9531;52.030;4.380;2022-09-23T03:08:02;10.90;99.90
18807;DHT22;9531;52.030;4.380;2022-09-23T03:10:38;10.90;99.90
18807;DHT22;9531;52.030;4.380;2022-09-23T03:13:14;9.00;99.90
18807;DHT22;9531;52.030;4.380;2022-09-23T03:15:49;16.40;99.90
18807;DHT22;9531;52.030;4.380;2022-09-23T03:18:26;8.60;99.90
18807;DHT22;9531;52.030;4.380;2022-09-23T03:21:01;8.00;99.90
18807;DHT22;9531;52.030;4.380;2022-09-23T03:23:34;15.70;99.90
18807;DHT22;9531;52.030;4.380;2022-09-23T03:26:07;10.90;99.90
18807;DHT22;9531;52.030;4.380;2022-09-23T03:28:37;9.30;99.90
18807;DHT22;9531;52.030;4.380;2022-09-23T03:33:36;11.00;99.90
18807;DHT22;9531;52.030;4.380;2022-09-23T03:36:09;8.30;99.90
18807;DHT22;9531;52.030;4.380;2022-09-23T03:38:58;11.00;99.90
18807;DHT22;9531;52.030;4.380;2022-09-23T03:41:31;13.60;99.90
18807;DHT22;9531;52.030;4.380;2022-09-23T03:44:02;7.00;99.90
18807;DHT22;9531;52.030;4.380;2022-09-23T03:49:06;11.00;99.90
18807;DHT22;9531;52.030;4.380;2022-09-23T03:51:35;8.90;99.90
18807;DHT22;9531;52.030;4.380;2022-09-23T03:54:02;16.70;99.90
18807;DHT22;9531;52.030;4.380;2022-09-23T03:56:29;11.00;99.90
18807;DHT22;9531;52.030;4.380;2022-09-23T03:58:57;9.90;99.90
18807;DHT22;9531;52.030;4.380;2022-09-23T04:01:24;11.00;99.90
18807;DHT22;9531;52.030;4.380;2022-09-23T04:03:52;14.90;99.90
18807;DHT22;9531;52.030;4.380;2022-09-23T04:06:20;15.10;99.90
18807;DHT22;9531;52.030;4.380;2022-09-23T04:08:48;11.00;99.90
18807;DHT22;9531;52.030;4.380;2022-09-23T04:11:16;11.00;99.90
18807;DHT22;9531;52.030;4.380;2022-09-23T04:13:43;12.20;99.90
18807;DHT22;9531;52.030;4.380;2022-09-23T04:16:11;6.70;99.90
18807;DHT22;9531;52.030;4.380;2022-09-23T04:18:39;7.00;99.90
18807;DHT22;9531;52.030;4.380;2022-09-23T04:21:06;16.00;99.90
18807;DHT22;9531;52.030;4.380;2022-09-23T04:26:03;11.10;99.90
18807;DHT22;9531;52.030;4.380;2022-09-23T04:28:32;11.20;99.90
18807;DHT22;9531;52.030;4.380;2022-09-23T04:31:03;8.50;99.90
18807;DHT22;9531;52.030;4.380;2022-09-23T04:33:30;6.70;99.90
18807;DHT22;9531;52.030;4.380;2022-09-23T04:35:57;17.10;99.90
18807;DHT22;9531;52.030;4.380;2022-09-23T04:40:52;11.30;99.90
18807;DHT22;9531;52.030;4.380;2022-09-23T04:43:21;11.30;99.90
18807;DHT22;9531;52.030;4.380;2022-09-23T04:45:57;14.50;99.90
18807;DHT22;9531;52.030;4.380;2022-09-23T04:48:25;11.30;99.90
18807;DHT22;9531;52.030;4.380;2022-09-23T04:53:19;10.60;99.90
18807;DHT22;9531;52.030;4.380;2022-09-23T04:55:47;11.30;99.90
18807;DHT22;9531;52.030;4.380;2022-09-23T04:58:14;14.80;99.90
18807;DHT22;9531;52.030;4.380;2022-09-23T05:00:43;11.30;99.90
18807;DHT22;9531;52.030;4.380;2022-09-23T05:05:38;14.30;99.90
18807;DHT22;9531;52.030;4.380;2022-09-23T05:08:05;6.00;99.90
18807;DHT22;9531;52.030;4.380;2022-09-23T05:12:59;14.90;99.90
18807;DHT22;9531;52.030;4.380;2022-09-23T05:15:26;10.90;99.90
18807;DHT22;9531;52.030;4.380;2022-09-23T05:17:57;11.40;99.90
18807;DHT22;9531;52.030;4.380;2022-09-23T05:22:52;11.40;99.90
18807;DHT22;9531;52.030;4.380;2022-09-23T05:25:20;15.00;99.90
18807;DHT22;9531;52.030;4.380;2022-09-23T05:27:48;14.20;99.90
18807;DHT22;9531;52.030;4.380;2022-09-23T05:30:15;11.40;99.90
18807;DHT22;9531;52.030;4.380;2022-09-23T05:32:42;7.90;99.90
18807;DHT22;9531;52.030;4.380;2022-09-23T05:35:12;11.50;99.90
18807;DHT22;9531;52.030;4.380;2022-09-23T05:37:39;9.20;99.90
18807;DHT22;9531;52.030;4.380;2022-09-23T05:40:09;11.50;99.90
18807;DHT22;9531;52.030;4.380;2022-09-23T05:45:05;11.30;99.90
18807;DHT22;9531;52.030;4.380;2022-09-23T05:47:33;7.70;99.90
18807;DHT22;9531;52.030;4.380;2022-09-23T05:52:28;6.00;99.90
18807;DHT22;9531;52.030;4.380;2022-09-23T05:59:50;9.60;99.90
18807;DHT22;9531;52.030;4.380;2022-09-23T06:04:45;9.90;99.90
18807;DHT22;9531;52.030;4.380;2022-09-23T06:07:12;8.90;99.90
18807;DHT22;9531;52.030;4.380;2022-09-23T06:09:40;7.70;99.90
18807;DHT22;9531;52.030;4.380;2022-09-23T06:19:30;10.20;99.90
18807;DHT22;9531;52.030;4.380;2022-09-23T06:21:57;6.90;99.90
18807;DHT22;9531;52.030;4.380;2022-09-23T06:24:23;7.70;99.90
18807;DHT22;9531;52.030;4.380;2022-09-23T06:26:52;10.70;99.90
18807;DHT22;9531;52.030;4.380;2022-09-23T06:29:19;17.70;99.90
18807;DHT22;9531;52.030;4.380;2022-09-23T06:31:48;11.70;99.90
18807;DHT22;9531;52.030;4.380;2022-09-23T06:34:15;9.70;99.90
18807;DHT22;9531;52.030;4.380;2022-09-23T06:36:42;11.90;99.90
18807;DHT22;9531;52.030;4.380;2022-09-23T06:44:06;6.30;99.90
18807;DHT22;9531;52.030;4.380;2022-09-23T06:49:02;7.50;99.90
18807;DHT22;9531;52.030;4.380;2022-09-23T06:51:29;14.60;99.90
18807;DHT22;9531;52.030;4.380;2022-09-23T06:53:56;17.50;99.90
18807;DHT22;9531;52.030;4.380;2022-09-23T06:58:50;10.80;99.90
18807;DHT22;9531;52.030;4.380;2022-09-23T07:01:19;12.60;99.90
18807;DHT22;9531;52.030;4.380;2022-09-23T07:03:47;12.60;99.90
18807;DHT22;9531;52.030;4.380;2022-09-23T07:06:15;16.70;99.90
18807;DHT22;9531;52.030;4.380;2022-09-23T07:08:43;17.80;99.90
18807;DHT22;9531;52.030;4.380;2022-09-23T07:11:11;12.90;99.90
18807;DHT22;9531;52.030;4.380;2022-09-23T07:13:40;16.50;99.90
18807;DHT22;9531;52.030;4.380;2022-09-23T07:16:08;13.10;99.90
18807;DHT22;9531;52.030;4.380;2022-09-23T07:18:38;18.40;99.90
18807;DHT22;9531;52.030;4.380;2022-09-23T07:21:09;13.40;99.90
18807;DHT22;9531;52.030;4.380;2022-09-23T07:26:05;17.90;99.90
18807;DHT22;9531;52.030;4.380;2022-09-23T07:28:33;13.70;99.90
18807;DHT22;9531;52.030;4.380;2022-09-23T07:31:03;12.70;99.90
18807;DHT22;9531;52.030;4.380;2022-09-23T07:33:32;13.10;99.90
18807;DHT22;9531;52.030;4.380;2022-09-23T07:36:03;14.20;99.90
18807;DHT22;9531;52.030;4.380;2022-09-23T07:38:31;11.60;99.90
18807;DHT22;9531;52.030;4.380;2022-09-23T07:41:02;19.00;99.90
18807;DHT22;9531;52.030;4.380;2022-09-23T07:43:29;16.40;99.90
18807;DHT22;9531;52.030;4.380;2022-09-23T07:45:59;14.60;99.90
18807;DHT22;9531;52.030;4.380;2022-09-23T07:48:27;18.40;99.90
18807;DHT22;9531;52.030;4.380;2022-09-23T07:50:55;14.70;99.90
18807;DHT22;9531;52.030;4.380;2022-09-23T07:53:23;14.80;99.90
18807;DHT22;9531;52.030;4.380;2022-09-23T07:55:51;14.90;99.90
18807;DHT22;9531;52.030;4.380;2022-09-23T07:58:19;15.00;99.90
18807;DHT22;9531;52.030;4.380;2022-09-23T08:00:47;15.90;99.90
18807;DHT22;9531;52.030;4.380;2022-09-23T08:03:15;15.20;99.90
18807;DHT22;9531;52.030;4.380;2022-09-23T08:10:40;15.70;99.90
18807;DHT22;9531;52.030;4.380;2022-09-23T08:15:34;14.70;99.90
18807;DHT22;9531;52.030;4.380;2022-09-23T08:18:01;18.30;99.90
18807;DHT22;9531;52.030;4.380;2022-09-23T08:20:28;16.00;99.90
18807;DHT22;9531;52.030;4.380;2022-09-23T08:23:10;18.00;99.90
18807;DHT22;9531;52.030;4.380;2022-09-23T08:25:40;15.90;99.90
18807;DHT22;9531;52.030;4.380;2022-09-23T08:33:02;21.80;99.90
18807;DHT22;9531;52.030;4.380;2022-09-23T08:37:57;20.30;99.90
18807;DHT22;9531;52.030;4.380;2022-09-23T08:42:52;17.10;99.90
18807;DHT22;9531;52.030;4.380;2022-09-23T08:45:23;17.30;99.90
18807;DHT22;9531;52.030;4.380;2022-09-23T08:47:53;16.50;99.90
18807;DHT22;9531;52.030;4.380;2022-09-23T08:50:23;15.90;99.90
18807;DHT22;9531;52.030;4.380;2022-09-23T08:52:54;17.50;99.90
18807;DHT22;9531;52.030;4.380;2022-09-23T08:55:29;17.50;99.90
18807;DHT22;9531;52.030;4.380;2022-09-23T08:58:07;17.00;99.90
18807;DHT22;9531;52.030;4.380;2022-09-23T09:00:55;17.90;99.90
18807;DHT22;9531;52.030;4.380;2022-09-23T09:03:33;17.90;99.90
18807;DHT22;9531;52.030;4.380;2022-09-23T09:09:25;19.10;99.90
18807;DHT22;9531;52.030;4.380;2022-09-23T09:11:58;23.10;99.90
18807;DHT22;9531;52.030;4.380;2022-09-23T09:14:36;18.20;99.90
18807;DHT22;9531;52.030;4.380;2022-09-23T09:17:13;18.30;99.90
18807;DHT22;9531;52.030;4.380;2022-09-23T09:19:58;18.30;99.90
18807;DHT22;9531;52.030;4.380;2022-09-23T09:22:40;15.10;99.90
18807;DHT22;9531;52.030;4.380;2022-09-23T09:25:18;23.40;99.90
18807;DHT22;9531;52.030;4.380;2022-09-23T09:27:49;22.10;99.90
18807;DHT22;9531;52.030;4.380;2022-09-23T09:30:19;19.10;99.90
18807;DHT22;9531;52.030;4.380;2022-09-23T09:32:54;19.40;99.90
18807;DHT22;9531;52.030;4.380;2022-09-23T09:35:32;14.70;99.90
18807;DHT22;9531;52.030;4.380;2022-09-23T09:38:03;19.70;99.90
18807;DHT22;9531;52.030;4.380;2022-09-23T09:40:31;19.90;99.90
18807;DHT22;9531;52.030;4.380;2022-09-23T09:42:59;15.00;99.90
18807;DHT22;9531;52.030;4.380;2022-09-23T09:45:45;20.00;99.90
18807;DHT22;9531;52.030;4.380;2022-09-23T09:48:25;20.10;99.90
18807;DHT22;9531;52.030;4.380;2022-09-23T09:51:15;20.20;99.90
18807;DHT22;9531;52.030;4.380;2022-09-23T09:56:19;17.00;99.90
18807;DHT22;9531;52.030;4.380;2022-09-23T09:58:51;22.30;99.90
18807;DHT22;9531;52.030;4.380;2022-09-23T10:01:34;20.20;99.90
18807;DHT22;9531;52.030;4.380;2022-09-23T10:04:03;24.60;99.90
18807;DHT22;9531;52.030;4.380;2022-09-23T10:06:33;20.20;99.90
18807;DHT22;9531;52.030;4.380;2022-09-23T10:09:12;21.00;99.90
18807;DHT22;9531;52.030;4.380;2022-09-23T10:12:02;21.50;99.90
18807;DHT22;9531;52.030;4.380;2022-09-23T10:14:31;22.60;99.90
18807;DHT22;9531;52.030;4.380;2022-09-23T10:17:11;24.30;99.90
18807;DHT22;9531;52.030;4.380;2022-09-23T10:19:45;20.00;99.90
18807;DHT22;9531;52.030;4.380;2022-09-23T10:22:18;23.30;99.90
18807;DHT22;9531;52.030;4.380;2022-09-23T10:24:58;24.60;99.90
18807;DHT22;9531;52.030;4.380;2022-09-23T10:27:29;15.50;99.90
18807;DHT22;9531;52.030;4.380;2022-09-23T10:29:58;22.60;99.90
18807;DHT22;9531;52.030;4.380;2022-09-23T10:32:29;19.80;99.90
18807;DHT22;9531;52.030;4.380;2022-09-23T10:35:02;22.40;99.90
18807;DHT22;9531;52.030;4.380;2022-09-23T10:37:40;20.70;99.90
18807;DHT22;9531;52.030;4.380;2022-09-23T10:40:13;20.70;99.90
18807;DHT22;9531;52.030;4.380;2022-09-23T10:46:17;19.90;99.90
18807;DHT22;9531;52.030;4.380;2022-09-23T10:49:22;24.60;99.90
18807;DHT22;9531;52.030;4.380;2022-09-23T10:52:00;23.20;99.90
18807;DHT22;9531;52.030;4.380;2022-09-23T10:54:35;24.20;99.90
18807;DHT22;9531;52.030;4.380;2022-09-23T10:57:14;24.70;99.90
18807;DHT22;9531;52.030;4.380;2022-09-23T11:00:07;21.50;99.90
18807;DHT22;9531;52.030;4.380;2022-09-23T11:02:56;20.60;99.90
18807;DHT22;9531;52.030;4.380;2022-09-23T11:05:37;20.90;99.90
18807;DHT22;9531;52.030;4.380;2022-09-23T11:08:26;22.30;99.90
18807;DHT22;9531;52.030;4.380;2022-09-23T11:11:11;20.50;99.90
18807;DHT22;9531;52.030;4.380;2022-09-23T11:13:59;21.50;99.90
18807;DHT22;9531;52.030;4.380;2022-09-23T11:16:40;22.30;99.90
18807;DHT22;9531;52.030;4.380;2022-09-23T11:19:20;20.40;99.90
18807;DHT22;9531;52.030;4.380;2022-09-23T11:22:03;22.00;99.90
18807;DHT22;9531;52.030;4.380;2022-09-23T11:24:53;22.20;99.90
18807;DHT22;9531;52.030;4.380;2022-09-23T11:27:39;22.40;99.90
18807;DHT22;9531;52.030;4.380;2022-09-23T11:30:12;21.90;99.90
18807;DHT22;9531;52.030;4.380;2022-09-23T11:32:55;26.70;99.90
18807;DHT22;9531;52.030;4.380;2022-09-23T11:35:30;23.00;99.90
18807;DHT22;9531;52.030;4.380;2022-09-23T11:38:06;23.10;99.90
18807;DHT22;9531;52.030;4.380;2022-09-23T11:40:36;22.50;99.90
18807;DHT22;9531;52.030;4.380;2022-09-23T11:43:17;23.80;99.90
18807;DHT22;9531;52.030;4.380;2022-09-23T11:45:50;24.10;99.90
18807;DHT22;9531;52.030;4.380;2022-09-23T11:48:24;24.50;99.90
18807;DHT22;9531;52.030;4.380;2022-09-23T11:50:57;20.70;99.90
18807;DHT22;9531;52.030;4.380;2022-09-23T11:53:33;28.50;99.90
18807;DHT22;9531;52.030;4.380;2022-09-23T11:56:06;30.60;99.90
18807;DHT22;9531;52.030;4.380;2022-09-23T11:58:37;29.60;99.90
18807;DHT22;9531;52.030;4.380;2022-09-23T12:01:08;26.10;99.90
18807;DHT22;9531;52.030;4.380;2022-09-23T12:03:43;25.50;99.90
18807;DHT22;9531;52.030;4.380;2022-09-23T12:06:14;26.00;99.90
18807;DHT22;9531;52.030;4.380;2022-09-23T12:08:56;29.10;99.90
18807;DHT22;9531;52.030;4.380;2022-09-23T12:11:29;25.80;99.90
18807;DHT22;9531;52.030;4.380;2022-09-23T12:14:08;21.30;99.90
18807;DHT22;9531;52.030;4.380;2022-09-23T12:17:02;24.70;99.90
18807;DHT22;9531;52.030;4.380;2022-09-23T12:19:43;22.10;99.90
18807;DHT22;9531;52.030;4.380;2022-09-23T12:22:21;20.70;99.90
18807;DHT22;9531;52.030;4.380;2022-09-23T12:25:04;24.70;99.90
18807;DHT22;9531;52.030;4.380;2022-09-23T12:27:35;24.00;99.90
18807;DHT22;9531;52.030;4.380;2022-09-23T12:30:10;21.30;99.90
18807;DHT22;9531;52.030;4.380;2022-09-23T12:32:38;24.40;99.90
18807;DHT22;9531;52.030;4.380;2022-09-23T12:35:21;20.60;99.90
18807;DHT22;9531;52.030;4.380;2022-09-23T12:40:25;24.10;99.90
18807;DHT22;9531;52.030;4.380;2022-09-23T12:45:34;19.50;99.90
18807;DHT22;9531;52.030;4.380;2022-09-23T12:51:14;23.80;99.90
18807;DHT22;9531;52.030;4.380;2022-09-23T12:53:55;23.70;99.90
18807;DHT22;9531;52.030;4.380;2022-09-23T12:56:27;29.00;99.90
18807;DHT22;9531;52.030;4.380;2022-09-23T12:58:59;23.70;99.90
18807;DHT22;9531;52.030;4.380;2022-09-23T13:01:29;23.70;99.90
18807;DHT22;9531;52.030;4.380;2022-09-23T13:04:01;26.60;99.90
18807;DHT22;9531;52.030;4.380;2022-09-23T13:06:52;24.70;99.90
18807;DHT22;9531;52.030;4.380;2022-09-23T13:09:24;27.00;99.90
18807;DHT22;9531;52.030;4.380;2022-09-23T13:11:56;23.60;99.90
18807;DHT22;9531;52.030;4.380;2022-09-23T13:14:25;23.60;99.90
18807;DHT22;9531;52.030;4.380;2022-09-23T13:17:00;23.50;99.90
18807;DHT22;9531;52.030;4.380;2022-09-23T13:19:43;21.70;99.90
18807;DHT22;9531;52.030;4.380;2022-09-23T13:22:12;23.90;99.90
18807;DHT22;9531;52.030;4.380;2022-09-23T13:24:52;26.50;99.90
18807;DHT22;9531;52.030;4.380;2022-09-23T13:27:25;23.30;99.90
18807;DHT22;9531;52.030;4.380;2022-09-23T13:29:57;23.20;99.90
18807;DHT22;9531;52.030;4.380;2022-09-23T13:32:29;23.10;99.90
18807;DHT22;9531;52.030;4.380;2022-09-23T13:34:59;23.00;99.90
18807;DHT22;9531;52.030;4.380;2022-09-23T13:37:30;23.00;99.90
18807;DHT22;9531;52.030;4.380;2022-09-23T13:40:08;25.60;99.90
18807;DHT22;9531;52.030;4.380;2022-09-23T13:42:38;22.70;99.90
18807;DHT22;9531;52.030;4.380;2022-09-23T13:45:15;22.60;99.90
18807;DHT22;9531;52.030;4.380;2022-09-23T13:47:44;26.40;99.90
18807;DHT22;9531;52.030;4.380;2022-09-23T13:50:17;27.90;99.90
18807;DHT22;9531;52.030;4.380;2022-09-23T13:52:45;22.30;99.90
18807;DHT22;9531;52.030;4.380;2022-09-23T13:55:28;22.20;99.90
18807;DHT22;9531;52.030;4.380;2022-09-23T13:57:58;19.00;99.90
18807;DHT22;9531;52.030;4.380;2022-09-23T14:00:26;24.60;99.90
18807;DHT22;9531;52.030;4.380;2022-09-23T14:02:58;20.40;99.90
18807;DHT22;9531;52.030;4.380;2022-09-23T14:05:27;21.80;99.90
18807;DHT22;9531;52.030;4.380;2022-09-23T14:07:59;21.00;99.90
18807;DHT22;9531;52.030;4.380;2022-09-23T14:10:26;21.60;99.90
18807;DHT22;9531;52.030;4.380;2022-09-23T14:12:54;21.60;99.90
18807;DHT22;9531;52.030;4.380;2022-09-23T14:15:25;21.50;99.90
18807;DHT22;9531;52.030;4.380;2022-09-23T14:18:03;21.40;99.90
18807;DHT22;9531;52.030;4.380;2022-09-23T14:20:44;21.30;99.90
18807;DHT22;9531;52.030;4.380;2022-09-23T14:23:12;24.90;99.90
18807;DHT22;9531;52.030;4.380;2022-09-23T14:25:42;24.30;99.90
18807;DHT22;9531;52.030;4.380;2022-09-23T14:28:13;21.20;99.90
18807;DHT22;9531;52.030;4.380;2022-09-23T14:30:44;21.20;99.90
18807;DHT22;9531;52.030;4.380;2022-09-23T14:33:17;25.60;99.90
18807;DHT22;9531;52.030;4.380;2022-09-23T14:35:50;25.50;99.90
18807;DHT22;9531;52.030;4.380;2022-09-23T14:38:24;24.70;99.90
18807;DHT22;9531;52.030;4.380;2022-09-23T14:41:15;21.00;99.90
18807;DHT22;9531;52.030;4.380;2022-09-23T14:43:53;25.10;99.90
18807;DHT22;9531;52.030;4.380;2022-09-23T14:46:24;20.90;99.90
18807;DHT22;9531;52.030;4.380;2022-09-23T14:48:57;20.90;99.90
18807;DHT22;9531;52.030;4.380;2022-09-23T14:51:34;16.50;99.90
18807;DHT22;9531;52.030;4.380;2022-09-23T14:54:27;24.80;99.90
18807;DHT22;9531;52.030;4.380;2022-09-23T14:56:58;16.10;99.90
18807;DHT22;9531;52.030;4.380;2022-09-23T14:59:27;17.50;99.90
18807;DHT22;9531;52.030;4.380;2022-09-23T15:01:56;20.50;99.90
18807;DHT22;9531;52.030;4.380;2022-09-23T15:04:31;20.30;99.90
18807;DHT22;9531;52.030;4.380;2022-09-23T15:07:04;22.90;99.90
18807;DHT22;9531;52.030;4.380;2022-09-23T15:09:35;20.10;99.90
18807;DHT22;9531;52.030;4.380;2022-09-23T15:12:05;20.00;99.90
18807;DHT22;9531;52.030;4.380;2022-09-23T15:14:37;19.90;99.90
18807;DHT22;9531;52.030;4.380;2022-09-23T15:17:14;20.40;99.90
18807;DHT22;9531;52.030;4.380;2022-09-23T15:19:42;22.80;99.90
18807;DHT22;9531;52.030;4.380;2022-09-23T15:22:11;23.40;99.90
18807;DHT22;9531;52.030;4.380;2022-09-23T15:24:42;23.00;99.90
18807;DHT22;9531;52.030;4.380;2022-09-23T15:27:27;19.50;99.90
18807;DHT22;9531;52.030;4.380;2022-09-23T15:30:01;23.10;99.90
18807;DHT22;9531;52.030;4.380;2022-09-23T15:32:30;19.30;99.90
18807;DHT22;9531;52.030;4.380;2022-09-23T15:37:26;23.00;99.90
18807;DHT22;9531;52.030;4.380;2022-09-23T15:39:52;19.10;99.90
18807;DHT22;9531;52.030;4.380;2022-09-23T15:42:19;22.50;99.90
18807;DHT22;9531;52.030;4.380;2022-09-23T15:44:48;22.70;99.90
18807;DHT22;9531;52.030;4.380;2022-09-23T15:47:15;22.70;99.90
18807;DHT22;9531;52.030;4.380;2022-09-23T15:49:47;18.70;99.90
18807;DHT22;9531;52.030;4.380;2022-09-23T15:52:25;14.30;99.90
18807;DHT22;9531;52.030;4.380;2022-09-23T16:02:18;18.40;99.90
18807;DHT22;9531;52.030;4.380;2022-09-23T16:04:47;18.40;99.90
18807;DHT22;9531;52.030;4.380;2022-09-23T16:17:08;18.20;99.90
18807;DHT22;9531;52.030;4.380;2022-09-23T16:22:09;18.00;99.90
18807;DHT22;9531;52.030;4.380;2022-09-23T16:24:39;18.00;99.90
18807;DHT22;9531;52.030;4.380;2022-09-23T16:27:06;21.50;99.90
18807;DHT22;9531;52.030;4.380;2022-09-23T16:32:03;14.50;99.90
18807;DHT22;9531;52.030;4.380;2022-09-23T16:34:30;16.70;99.90
18807;DHT22;9531;52.030;4.380;2022-09-23T16:37:08;19.10;99.90
18807;DHT22;9531;52.030;4.380;2022-09-23T16:44:32;15.70;99.90
18807;DHT22;9531;52.030;4.380;2022-09-23T16:47:00;21.20;99.90
18807;DHT22;9531;52.030;4.380;2022-09-23T16:49:29;17.60;99.90
18807;DHT22;9531;52.030;4.380;2022-09-23T16:51:59;17.60;99.90
18807;DHT22;9531;52.030;4.380;2022-09-23T16:54:30;21.00;99.90
18807;DHT22;9531;52.030;4.380;2022-09-23T16:56:57;21.80;99.90
18807;DHT22;9531;52.030;4.380;2022-09-23T16:59:27;17.40;99.90
18807;DHT22;9531;52.030;4.380;2022-09-23T17:07:27;18.70;99.90
18807;DHT22;9531;52.030;4.380;2022-09-23T17:09:55;20.80;99.90
18807;DHT22;9531;52.030;4.380;2022-09-23T17:12:25;17.30;99.90
18807;DHT22;9531;52.030;4.380;2022-09-23T17:22:19;17.20;99.90
18807;DHT22;9531;52.030;4.380;2022-09-23T17:24:46;20.90;99.90
18807;DHT22;9531;52.030;4.380;2022-09-23T17:27:20;21.80;99.90
18807;DHT22;9531;52.030;4.380;2022-09-23T17:29:49;13.50;99.90
18807;DHT22;9531;52.030;4.380;2022-09-23T17:32:19;21.90;99.90
18807;DHT22;9531;52.030;4.380;2022-09-23T17:34:47;21.00;99.90
18807;DHT22;9531;52.030;4.380;2022-09-23T17:39:42;21.20;99.90
18807;DHT22;9531;52.030;4.380;2022-09-23T17:42:10;21.30;99.90
18807;DHT22;9531;52.030;4.380;2022-09-23T17:44:40;13.40;99.90
18807;DHT22;9531;52.030;4.380;2022-09-23T17:47:09;16.90;99.90
18807;DHT22;9531;52.030;4.380;2022-09-23T17:49:38;12.10;99.90
18807;DHT22;9531;52.030;4.380;2022-09-23T17:52:14;20.40;99.90
18807;DHT22;9531;52.030;4.380;2022-09-23T17:54:43;15.30;99.90
18807;DHT22;9531;52.030;4.380;2022-09-23T17:57:12;13.70;99.90
18807;DHT22;9531;52.030;4.380;2022-09-23T17:59:48;16.80;99.90
18807;DHT22;9531;52.030;4.380;2022-09-23T18:02:22;16.70;99.90
18807;DHT22;9531;52.030;4.380;2022-09-23T18:04:51;16.70;99.90
18807;DHT22;9531;52.030;4.380;2022-09-23T18:07:20;12.20;99.90
18807;DHT22;9531;52.030;4.380;2022-09-23T18:09:47;13.90;99.90
18807;DHT22;9531;52.030;4.380;2022-09-23T18:14:41;12.90;99.90
18807;DHT22;9531;52.030;4.380;2022-09-23T18:17:11;19.60;99.90
18807;DHT22;9531;52.030;4.380;2022-09-23T18:22:09;16.30;99.90
18807;DHT22;9531;52.030;4.380;2022-09-23T18:27:07;20.80;99.90
18807;DHT22;9531;52.030;4.380;2022-09-23T18:29:36;11.30;99.90
18807;DHT22;9531;52.030;4.380;2022-09-23T18:32:06;12.80;99.90
18807;DHT22;9531;52.030;4.380;2022-09-23T18:34:34;18.10;99.90
18807;DHT22;9531;52.030;4.380;2022-09-23T18:37:01;15.20;99.90
18807;DHT22;9531;52.030;4.380;2022-09-23T18:41:55;16.30;99.90
18807;DHT22;9531;52.030;4.380;2022-09-23T18:44:30;21.20;99.90
18807;DHT22;9531;52.030;4.380;2022-09-23T18:46:58;19.70;99.90
18807;DHT22;9531;52.030;4.380;2022-09-23T18:49:25;16.30;99.90
18807;DHT22;9531;52.030;4.380;2022-09-23T18:52:11;19.20;99.90
18807;DHT22;9531;52.030;4.380;2022-09-23T18:54:39;20.10;99.90
18807;DHT22;9531;52.030;4.380;2022-09-23T18:57:13;16.10;99.90